Time;durP1;ratioP1;P1;durP2;ratioP2;P2;SDS_P1;SDS_P2;PMS_P1;PMS_P2;Temp;Humidity;BMP_temperature;BMP_pressure;BME280_temperature;BME280_humidity;BME280_pressure;Samples;Min_cycle;Max_cycle;Signal;HPM_P1;HPM_P2
2021/12/22 00:00:30;;;;;;;23.17;14.77;;;-5.10;9.20;;;;;;5054000;28;20211;-76
2021/12/22 00:02:57;;;;;;;25.90;15.33;;;-5.20;1.00;;;;;;5053508;28;20245;-76
2021/12/22 00:05:26;;;;;;;24.73;14.37;;;-5.20;1.00;;;;;;5053640;28;20740;-77
2021/12/22 00:07:52;;;;;;;27.60;15.00;;;-5.30;1.00;;;;;;5052865;28;20205;-76
2021/12/22 00:10:19;;;;;;;24.53;13.93;;;-5.30;1.00;;;;;;5053662;28;20201;-77
2021/12/22 00:12:45;;;;;;;23.13;15.03;;;-5.30;1.00;;;;;;5053331;28;20647;-76
2021/12/22 00:15:11;;;;;;;22.57;14.33;;;-5.40;1.00;;;;;;5053473;28;20179;-76
2021/12/22 00:17:37;;;;;;;24.13;14.50;;;-5.30;13.20;;;;;;5052947;28;20222;-77
2021/12/22 00:20:04;;;;;;;23.50;14.90;;;-5.30;3.80;;;;;;5053567;28;20221;-76
2021/12/22 00:22:30;;;;;;;25.33;14.83;;;-5.40;1.00;;;;;;5053201;28;20244;-77
2021/12/22 00:24:56;;;;;;;21.83;14.27;;;-5.40;1.00;;;;;;5053320;28;20170;-76
2021/12/22 00:27:22;;;;;;;19.97;14.47;;;-5.40;1.00;;;;;;5052608;28;20199;-76
2021/12/22 00:29:49;;;;;;;24.27;14.47;;;-5.40;1.00;;;;;;5053104;28;20179;-77
2021/12/22 00:32:16;;;;;;;27.63;15.93;;;-5.40;1.00;;;;;;5053198;28;20175;-77
2021/12/22 00:34:47;;;;;;;24.53;15.03;;;-5.40;1.00;;;;;;5053093;28;20179;-76
2021/12/22 00:37:14;;;;;;;21.13;13.90;;;-5.40;28.80;;;;;;5052467;28;20268;-76
2021/12/22 00:39:40;;;;;;;24.53;15.17;;;-5.40;77.10;;;;;;5052893;28;20648;-76
2021/12/22 00:42:06;;;;;;;23.33;15.30;;;-5.40;67.60;;;;;;5053149;28;20187;-76
2021/12/22 00:44:32;;;;;;;21.80;15.03;;;-5.40;81.20;;;;;;5053672;28;20661;-76
2021/12/22 00:46:57;;;;;;;29.33;15.97;;;-5.40;56.60;;;;;;5052888;28;20175;-76
2021/12/22 00:49:23;;;;;;;31.13;18.27;;;-5.40;22.20;;;;;;5053897;28;20561;-76
2021/12/22 00:51:48;;;;;;;28.60;16.37;;;-5.40;15.70;;;;;;5053738;28;20179;-76
2021/12/22 00:54:14;;;;;;;25.53;15.17;;;-5.40;1.00;;;;;;5052852;28;20191;-77
2021/12/22 00:56:39;;;;;;;24.23;14.30;;;-5.60;1.00;;;;;;5052737;28;20183;-77
2021/12/22 00:59:05;;;;;;;26.37;14.00;;;-5.70;1.00;;;;;;5052181;28;20199;-77
2021/12/22 01:01:31;;;;;;;26.57;13.53;;;-5.80;1.00;;;;;;5052906;28;20175;-77
2021/12/22 01:03:56;;;;;;;26.57;14.37;;;-5.80;1.00;;;;;;5052834;28;20264;-77
2021/12/22 01:06:22;;;;;;;22.13;13.80;;;-5.80;1.00;;;;;;5053098;28;20198;-76
2021/12/22 01:08:48;;;;;;;25.67;14.20;;;-5.90;1.00;;;;;;5052880;28;20199;-76
2021/12/22 01:11:13;;;;;;;22.27;14.03;;;-5.80;1.00;;;;;;5052811;28;20241;-77
2021/12/22 01:13:39;;;;;;;25.13;13.77;;;-5.90;1.00;;;;;;5052755;28;20179;-76
2021/12/22 01:16:07;;;;;;;22.77;14.03;;;-5.90;1.00;;;;;;5052944;28;20190;-76
2021/12/22 01:18:34;;;;;;;22.20;13.63;;;-5.90;1.00;;;;;;5055084;28;20218;-77
2021/12/22 01:21:19;;;;;;;23.63;14.47;;;-5.80;1.00;;;;;;5063501;28;20245;-77
2021/12/22 01:24:00;;;;;;;21.70;13.17;;;-5.80;1.00;;;;;;5053144;28;20655;-77
2021/12/22 01:26:28;;;;;;;24.40;13.90;;;-5.80;1.00;;;;;;5053198;28;20178;-77
2021/12/22 01:28:54;;;;;;;22.10;13.67;;;-5.80;1.00;;;;;;5052154;28;20203;-77
2021/12/22 01:31:20;;;;;;;24.40;14.77;;;-5.90;1.00;;;;;;5053333;28;20176;-77
2021/12/22 01:33:46;;;;;;;23.13;14.43;;;-5.80;1.00;;;;;;5053659;28;20182;-77
2021/12/22 01:36:11;;;;;;;23.43;14.20;;;-5.80;1.00;;;;;;5053678;28;20577;-78
2021/12/22 01:38:37;;;;;;;21.97;14.23;;;-5.90;1.00;;;;;;5053650;28;20211;-77
2021/12/22 01:41:02;;;;;;;19.40;12.87;;;-5.90;1.00;;;;;;5053930;28;20656;-77
2021/12/22 01:43:28;;;;;;;22.93;13.30;;;-5.90;1.00;;;;;;5052924;28;20494;-77
2021/12/22 01:51:30;;;;;;;20.67;13.90;;;-5.90;1.00;;;;;;5055226;28;20224;-78
2021/12/22 01:54:04;;;;;;;21.87;14.13;;;-5.90;1.00;;;;;;5056026;28;20167;-78
2021/12/22 01:56:32;;;;;;;21.70;13.90;;;-6.00;1.00;;;;;;5056493;28;20186;-77
2021/12/22 01:59:00;;;;;;;25.17;15.57;;;-5.90;1.00;;;;;;5053441;28;20322;-77
2021/12/22 02:01:27;;;;;;;25.57;13.67;;;-5.80;1.00;;;;;;5052842;28;20178;-77
2021/12/22 02:03:53;;;;;;;22.07;13.67;;;-5.90;1.00;;;;;;5052225;28;20205;-78
2021/12/22 02:06:21;;;;;;;20.93;13.13;;;-5.90;1.00;;;;;;5057572;28;20246;-78
2021/12/22 02:08:48;;;;;;;22.63;13.47;;;-5.90;1.00;;;;;;5051913;28;20734;-78
2021/12/22 02:11:16;;;;;;;26.83;14.50;;;-5.90;1.00;;;;;;5059127;28;20233;-79
2021/12/22 02:13:46;;;;;;;24.07;14.00;;;-6.10;1.00;;;;;;5057568;28;20179;-78
2021/12/22 02:16:15;;;;;;;21.23;12.70;;;-6.10;1.00;;;;;;5058812;28;20279;-79
2021/12/22 02:18:45;;;;;;;20.67;13.37;;;-6.10;1.00;;;;;;5056796;28;20250;-79
2021/12/22 02:21:12;;;;;;;22.83;12.93;;;-6.10;1.00;;;;;;5057396;28;20176;-77
2021/12/22 02:23:40;;;;;;;20.73;12.90;;;-6.10;1.00;;;;;;5056754;28;20175;-78
2021/12/22 02:26:16;;;;;;;19.17;12.50;;;-6.20;1.00;;;;;;5053709;28;20262;-78
2021/12/22 02:28:46;;;;;;;18.87;12.37;;;-6.20;1.00;;;;;;5056214;28;20209;-78
2021/12/22 02:31:16;;;;;;;23.23;13.77;;;-6.10;1.00;;;;;;5058757;28;20186;-79
2021/12/22 02:33:45;;;;;;;23.13;14.13;;;-6.20;1.00;;;;;;5055341;28;20697;-78
2021/12/22 02:38:44;;;;;;;27.60;14.33;;;-6.10;1.00;;;;;;5055331;28;20211;-78
2021/12/22 02:41:13;;;;;;;24.67;14.63;;;-6.10;1.00;;;;;;5055270;28;20210;-77
2021/12/22 02:43:49;;;;;;;20.77;13.43;;;-6.10;1.00;;;;;;5055234;28;20181;-76
2021/12/22 02:46:36;;;;;;;22.73;13.30;;;-6.10;1.00;;;;;;5054935;28;20174;-76
2021/12/22 02:49:04;;;;;;;19.23;12.37;;;-6.20;1.00;;;;;;5054672;28;20203;-76
2021/12/22 02:51:30;;;;;;;23.03;13.13;;;-6.30;1.00;;;;;;5055730;28;20184;-76
2021/12/22 02:54:18;;;;;;;22.03;13.40;;;-6.30;1.00;;;;;;5055016;28;20659;-77
2021/12/22 03:00:21;;;;;;;22.77;14.37;;;-6.20;1.00;;;;;;5054790;28;20195;-76
2021/12/22 03:02:12;;;;;;;23.63;13.77;;;-6.30;1.00;;;;;;5040786;28;20175;-77
2021/12/22 03:04:54;;;;;;;24.40;13.77;;;-6.30;1.00;;;;;;5093045;22;20238;-78
2021/12/22 03:07:23;;;;;;;21.87;13.87;;;-6.30;1.00;;;;;;5053746;28;20198;-77
2021/12/22 03:09:59;;;;;;;19.83;12.87;;;-6.40;1.00;;;;;;5054274;28;20190;-78
2021/12/22 03:12:26;;;;;;;22.10;13.43;;;-6.60;1.00;;;;;;5054133;28;20174;-78
2021/12/22 03:14:51;;;;;;;21.23;13.93;;;-6.60;1.00;;;;;;5054091;28;20180;-78
2021/12/22 03:17:17;;;;;;;24.43;13.93;;;-6.60;1.00;;;;;;5053583;28;20256;-78
2021/12/22 03:19:42;;;;;;;22.90;12.90;;;-6.50;1.00;;;;;;5055687;28;20238;-75
2021/12/22 03:22:11;;;;;;;24.47;12.77;;;-6.50;1.00;;;;;;5054147;28;20207;-75
2021/12/22 03:24:38;;;;;;;22.17;13.63;;;-6.50;1.00;;;;;;5053910;28;20513;-76
2021/12/22 03:27:04;;;;;;;20.10;12.70;;;-6.50;1.00;;;;;;5053438;28;20182;-75
2021/12/22 03:29:32;;;;;;;21.17;13.50;;;-6.40;1.00;;;;;;5054067;28;20171;-74
2021/12/22 03:31:58;;;;;;;21.70;13.53;;;-6.40;1.00;;;;;;5053968;28;20175;-74
2021/12/22 03:34:23;;;;;;;20.23;13.27;;;-6.40;1.00;;;;;;5053940;28;20482;-75
2021/12/22 03:36:49;;;;;;;22.53;14.60;;;-6.50;1.00;;;;;;5053514;28;20178;-77
2021/12/22 03:39:16;;;;;;;20.43;13.63;;;-6.50;1.00;;;;;;5053549;28;20210;-76
2021/12/22 03:41:43;;;;;;;22.53;13.73;;;-6.50;1.00;;;;;;5053429;28;20186;-75
2021/12/22 03:44:10;;;;;;;22.83;14.00;;;-6.60;1.00;;;;;;5053516;28;20186;-75
2021/12/22 03:46:36;;;;;;;20.10;13.40;;;-6.50;1.00;;;;;;5053555;28;20617;-75
2021/12/22 03:49:04;;;;;;;24.77;15.27;;;-6.50;1.00;;;;;;5053083;28;20712;-75
2021/12/22 03:51:30;;;;;;;27.60;14.53;;;-6.50;1.00;;;;;;5053405;28;20661;-75
2021/12/22 03:53:55;;;;;;;21.57;13.73;;;-6.60;1.00;;;;;;5053574;28;20175;-74
2021/12/22 03:56:21;;;;;;;21.30;12.63;;;-6.60;1.00;;;;;;5053337;28;20245;-76
2021/12/22 03:58:47;;;;;;;22.50;13.07;;;-6.60;1.00;;;;;;5052782;28;20225;-76
2021/12/22 04:01:13;;;;;;;22.10;14.10;;;-6.70;1.00;;;;;;5053724;28;20179;-75
2021/12/22 04:03:40;;;;;;;21.20;14.40;;;-6.80;1.00;;;;;;5053306;28;20576;-75
2021/12/22 04:06:06;;;;;;;24.57;14.47;;;-6.60;1.00;;;;;;5053273;28;20256;-75
2021/12/22 04:08:32;;;;;;;25.20;13.83;;;-6.70;1.00;;;;;;5052528;28;20345;-75
2021/12/22 04:10:57;;;;;;;23.10;12.73;;;-6.80;1.00;;;;;;5053168;28;20183;-75
2021/12/22 04:13:23;;;;;;;20.33;12.77;;;-6.90;1.00;;;;;;5053109;28;20183;-75
2021/12/22 04:15:49;;;;;;;20.57;13.00;;;-6.80;1.00;;;;;;5052900;28;20190;-75
2021/12/22 04:18:16;;;;;;;20.03;12.67;;;-6.70;1.00;;;;;;5052422;28;20219;-75
2021/12/22 04:20:42;;;;;;;21.17;13.73;;;-6.80;1.00;;;;;;5053081;28;20179;-75
2021/12/22 04:23:08;;;;;;;19.77;13.20;;;-6.70;1.00;;;;;;5052824;28;20190;-75
2021/12/22 04:25:34;;;;;;;18.80;12.63;;;-6.90;1.00;;;;;;5052884;28;20175;-76
2021/12/22 04:28:07;;;;;;;20.37;12.90;;;-6.90;1.00;;;;;;5052377;28;20694;-75
2021/12/22 04:30:39;;;;;;;21.97;12.83;;;-6.90;1.00;;;;;;5052993;28;20159;-78
2021/12/22 04:33:04;;;;;;;24.93;12.70;;;-7.00;1.00;;;;;;5052924;28;20175;-76
2021/12/22 04:35:31;;;;;;;22.10;13.60;;;-7.00;1.00;;;;;;5052616;28;20182;-76
2021/12/22 04:37:57;;;;;;;29.03;15.60;;;-7.00;1.00;;;;;;5051952;28;20246;-77
2021/12/22 04:40:23;;;;;;;21.27;12.90;;;-7.00;1.00;;;;;;5052502;28;20171;-76
2021/12/22 04:42:49;;;;;;;19.73;12.40;;;-7.00;1.00;;;;;;5052511;28;20278;-75
2021/12/22 04:45:15;;;;;;;21.87;13.33;;;-7.00;1.00;;;;;;5052619;28;20201;-74
2021/12/22 04:47:42;;;;;;;20.73;13.33;;;-7.00;1.00;;;;;;5051868;28;20195;-74
2021/12/22 04:50:14;;;;;;;24.27;13.33;;;-7.00;1.00;;;;;;5052209;28;20179;-75
2021/12/22 04:52:48;;;;;;;18.23;11.73;;;-7.10;1.00;;;;;;5051665;28;20179;-76
2021/12/22 04:55:14;;;;;;;19.40;12.73;;;-7.20;1.00;;;;;;5052636;28;20170;-75
2021/12/22 04:57:40;;;;;;;18.93;12.23;;;-7.20;1.00;;;;;;5051672;28;20305;-75
2021/12/22 05:00:10;;;;;;;19.80;12.83;;;-7.00;1.00;;;;;;5052160;28;20202;-76
2021/12/22 05:02:35;;;;;;;20.20;12.70;;;-7.00;1.00;;;;;;5051850;28;20837;-75
2021/12/22 05:05:01;;;;;;;30.33;15.00;;;-7.20;1.00;;;;;;5051869;28;20191;-75
2021/12/22 05:07:26;;;;;;;21.67;13.93;;;-7.30;1.00;;;;;;5051340;28;20257;-75
2021/12/22 05:09:52;;;;;;;21.60;14.23;;;-7.20;1.00;;;;;;5051134;28;20182;-74
2021/12/22 05:12:17;;;;;;;25.27;14.97;;;-7.10;1.00;;;;;;5051067;28;20175;-75
2021/12/22 05:14:44;;;;;;;24.30;13.83;;;-7.00;1.00;;;;;;5050802;28;20203;-75
2021/12/22 05:17:18;;;;;;;24.30;13.43;;;-7.00;1.00;;;;;;5050770;28;20202;-75
2021/12/22 05:19:43;;;;;;;22.23;13.27;;;-7.10;1.00;;;;;;5051326;28;20207;-74
2021/12/22 05:22:09;;;;;;;23.37;14.30;;;-7.20;1.00;;;;;;5051779;28;20202;-75
2021/12/22 05:24:35;;;;;;;24.07;13.80;;;-7.10;1.00;;;;;;5051968;28;20236;-76
2021/12/22 05:27:00;;;;;;;21.87;12.97;;;-7.10;1.00;;;;;;5051297;28;20612;-76
2021/12/22 05:29:26;;;;;;;21.10;14.00;;;-7.20;1.00;;;;;;5051625;28;20175;-77
2021/12/22 05:31:54;;;;;;;24.27;14.63;;;-7.30;1.00;;;;;;5051570;28;20240;-76
2021/12/22 05:34:20;;;;;;;22.17;13.63;;;-7.10;1.00;;;;;;5051820;28;20176;-76
2021/12/22 05:36:46;;;;;;;23.80;15.53;;;-7.10;1.00;;;;;;5051679;28;20248;-76
2021/12/22 05:39:11;;;;;;;21.87;14.53;;;-7.30;1.00;;;;;;5051191;28;20290;-76
2021/12/22 05:41:37;;;;;;;25.57;15.70;;;-7.30;1.00;;;;;;5052112;28;20215;-77
2021/12/22 05:44:02;;;;;;;24.53;14.83;;;-7.30;1.00;;;;;;5051278;28;20207;-76
2021/12/22 05:46:28;;;;;;;24.73;14.97;;;-7.30;1.00;;;;;;5051549;28;20186;-77
2021/12/22 05:48:54;;;;;;;22.97;15.40;;;-7.30;1.00;;;;;;5051169;28;20191;-76
2021/12/22 05:51:21;;;;;;;24.23;14.63;;;-7.20;1.00;;;;;;5051888;28;20272;-76
2021/12/22 05:53:47;;;;;;;27.37;13.20;;;-7.10;1.00;;;;;;5051131;28;20175;-75
2021/12/22 05:56:13;;;;;;;21.70;14.27;;;-7.30;1.00;;;;;;5051410;28;20647;-77
2021/12/22 05:58:38;;;;;;;35.73;20.23;;;-7.30;1.00;;;;;;5050732;28;20222;-77
2021/12/22 06:01:04;;;;;;;24.87;16.93;;;-7.30;1.00;;;;;;5051358;28;20179;-75
2021/12/22 06:03:29;;;;;;;27.17;15.90;;;-7.40;1.00;;;;;;5052269;28;20193;-76
2021/12/22 06:05:55;;;;;;;23.90;16.20;;;-7.40;1.00;;;;;;5056509;28;20179;-74
2021/12/22 06:08:21;;;;;;;23.60;15.37;;;-7.30;1.00;;;;;;5054648;28;20567;-73
2021/12/22 06:10:46;;;;;;;30.37;15.13;;;-7.30;1.00;;;;;;5055139;28;20183;-75
2021/12/22 06:13:12;;;;;;;23.37;14.80;;;-7.30;1.00;;;;;;5055346;28;20271;-75
2021/12/22 06:15:39;;;;;;;23.43;14.37;;;-7.30;1.00;;;;;;5055490;28;20190;-75
2021/12/22 06:18:06;;;;;;;24.43;14.77;;;-7.30;1.00;;;;;;5054796;28;20302;-75
2021/12/22 06:20:33;;;;;;;24.80;14.40;;;-7.30;1.00;;;;;;5055178;28;20265;-75
2021/12/22 06:22:59;;;;;;;21.57;13.97;;;-7.30;1.00;;;;;;5054900;28;20267;-75
2021/12/22 06:25:25;;;;;;;23.77;14.27;;;-7.30;1.00;;;;;;5055219;28;20199;-74
2021/12/22 06:27:51;;;;;;;29.97;14.93;;;-7.40;1.00;;;;;;5054471;28;20195;-74
2021/12/22 06:30:18;;;;;;;27.13;14.83;;;-7.50;1.00;;;;;;5054908;28;20232;-75
2021/12/22 06:32:44;;;;;;;23.30;14.53;;;-7.50;1.00;;;;;;5054860;28;20183;-74
2021/12/22 06:35:10;;;;;;;24.07;15.27;;;-7.70;1.00;;;;;;5054755;28;20194;-74
2021/12/22 06:37:36;;;;;;;27.67;15.70;;;-7.60;1.00;;;;;;5053941;28;20305;-74
2021/12/22 06:40:04;;;;;;;27.07;15.63;;;-7.50;1.00;;;;;;5054909;28;20197;-75
2021/12/22 06:42:30;;;;;;;22.87;14.60;;;-7.50;1.00;;;;;;5054562;28;20220;-74
2021/12/22 06:44:56;;;;;;;25.33;15.60;;;-7.40;1.00;;;;;;5054682;28;20199;-75
2021/12/22 06:47:21;;;;;;;25.90;16.33;;;-7.50;1.00;;;;;;5054136;28;20288;-75
2021/12/22 06:49:47;;;;;;;26.40;15.73;;;-7.40;1.00;;;;;;5054560;28;20230;-75
2021/12/22 06:52:12;;;;;;;23.47;16.17;;;-7.40;1.00;;;;;;5054385;28;20176;-74
2021/12/22 06:54:38;;;;;;;24.07;15.93;;;-7.30;1.00;;;;;;5054381;28;20183;-75
2021/12/22 06:57:04;;;;;;;26.60;16.67;;;-7.30;1.00;;;;;;5053767;28;20211;-75
2021/12/22 06:59:30;;;;;;;29.47;15.47;;;-7.30;1.00;;;;;;5054389;28;20183;-75
2021/12/22 07:01:55;;;;;;;23.27;14.50;;;-7.30;1.00;;;;;;5054030;28;20175;-74
2021/12/22 07:04:21;;;;;;;25.57;16.00;;;-7.50;1.00;;;;;;5054083;28;20349;-75
2021/12/22 07:06:46;;;;;;;25.23;15.90;;;-7.50;1.00;;;;;;5053899;28;20179;-74
2021/12/22 07:09:12;;;;;;;26.37;15.17;;;-7.80;1.00;;;;;;5053923;28;20226;-74
2021/12/22 07:11:38;;;;;;;26.80;15.67;;;-7.60;1.00;;;;;;5054193;28;20229;-75
2021/12/22 07:14:07;;;;;;;26.27;15.00;;;-7.50;1.00;;;;;;5054163;28;20206;-75
2021/12/22 07:16:33;;;;;;;26.23;16.03;;;-7.30;1.00;;;;;;5053248;28;20254;-75
2021/12/22 07:18:58;;;;;;;27.23;16.40;;;-7.30;1.00;;;;;;5053330;28;20223;-74
2021/12/22 07:21:24;;;;;;;25.77;15.93;;;-7.40;1.00;;;;;;5053925;28;20829;-75
2021/12/22 07:23:50;;;;;;;26.07;15.03;;;-7.30;1.00;;;;;;5053906;28;20175;-75
2021/12/22 07:26:16;;;;;;;25.73;16.13;;;-7.40;1.00;;;;;;5054017;28;20182;-75
2021/12/22 07:28:47;;;;;;;26.53;16.90;;;-7.30;1.00;;;;;;5053404;28;20282;-75
2021/12/22 07:31:14;;;;;;;25.77;15.70;;;-7.40;1.00;;;;;;5053501;28;20190;-75
2021/12/22 07:34:10;;;;;;;23.93;14.73;;;-7.30;1.00;;;;;;5053567;28;20654;-75
2021/12/22 07:36:42;;;;;;;26.37;14.13;;;-7.10;1.00;;;;;;5053642;28;20186;-75
2021/12/22 07:39:07;;;;;;;25.67;15.23;;;-6.60;1.00;;;;;;5053042;28;20317;-75
2021/12/22 07:41:33;;;;;;;23.47;14.60;;;-5.70;99.90;;;;;;5053666;28;20179;-75
2021/12/22 07:43:58;;;;;;;22.60;14.80;;;-5.30;99.90;;;;;;5053413;28;20269;-75
2021/12/22 07:46:24;;;;;;;24.30;15.83;;;-5.40;1.00;;;;;;5053509;28;20414;-75
2021/12/22 07:48:50;;;;;;;25.37;14.90;;;-5.10;99.90;;;;;;5052807;28;20671;-75
2021/12/22 07:51:16;;;;;;;21.37;13.33;;;-4.70;43.90;;;;;;5053982;28;20317;-75
2021/12/22 07:53:42;;;;;;;21.40;13.77;;;-4.10;1.00;;;;;;5054245;28;20599;-76
2021/12/22 07:56:07;;;;;;;20.90;13.47;;;-3.80;1.00;;;;;;5054535;28;20647;-76
2021/12/22 07:58:33;;;;;;;27.60;14.27;;;-3.20;99.90;;;;;;5055859;28;20238;-75
2021/12/22 08:00:59;;;;;;;18.20;12.87;;;-2.80;99.90;;;;;;5057274;28;20179;-75
2021/12/22 08:03:25;;;;;;;19.07;13.27;;;-2.00;21.40;;;;;;5053280;28;20195;-76
2021/12/22 08:05:52;;;;;;;19.47;13.20;;;-1.80;1.00;;;;;;5053218;28;20631;-76
2021/12/22 08:08:18;;;;;;;20.37;13.33;;;-1.30;1.00;;;;;;5052821;28;20210;-76
2021/12/22 08:10:45;;;;;;;20.30;13.70;;;-1.00;1.00;;;;;;5053392;28;20256;-75
2021/12/22 08:13:11;;;;;;;19.40;13.53;;;-1.10;1.00;;;;;;5053190;28;20186;-76
2021/12/22 08:15:36;;;;;;;19.67;13.73;;;0.20;1.00;;;;;;5053056;28;20179;-76
2021/12/22 08:18:02;;;;;;;19.23;13.63;;;-0.40;1.00;;;;;;5052872;28;20230;-76
2021/12/22 08:20:27;;;;;;;21.40;13.97;;;0.30;1.00;;;;;;5035193;28;20183;-76
2021/12/22 08:22:53;;;;;;;21.13;13.77;;;0.60;1.00;;;;;;5053167;28;20185;-76
2021/12/22 08:25:20;;;;;;;22.07;14.50;;;0.70;1.00;;;;;;5052835;28;20660;-76
2021/12/22 08:27:46;;;;;;;20.20;15.13;;;0.90;1.00;;;;;;5051207;28;20206;-76
2021/12/22 08:30:12;;;;;;;18.30;14.53;;;0.90;1.00;;;;;;5052786;28;20187;-76
2021/12/22 08:32:38;;;;;;;18.90;14.03;;;0.90;1.00;;;;;;5053698;28;20175;-76
2021/12/22 08:35:07;;;;;;;30.53;15.00;;;0.90;1.00;;;;;;5052425;28;20210;-76
2021/12/22 08:40:19;;;;;;;23.57;14.37;;;1.10;1.00;;;;;;5052429;28;20209;-76
2021/12/22 08:42:45;;;;;;;17.30;14.13;;;1.40;1.00;;;;;;5052652;28;20205;-76
2021/12/22 08:45:12;;;;;;;21.33;14.93;;;1.60;1.00;;;;;;5052570;28;20624;-76
2021/12/22 08:47:38;;;;;;;21.00;14.87;;;2.30;1.00;;;;;;5051729;28;20275;-75
2021/12/22 08:50:06;;;;;;;19.40;14.47;;;2.60;1.00;;;;;;5052210;28;20203;-75
2021/12/22 08:52:32;;;;;;;21.67;14.80;;;2.60;1.00;;;;;;5051716;28;20186;-76
2021/12/22 08:54:57;;;;;;;19.07;15.53;;;1.80;1.00;;;;;;5051552;28;20262;-76
2021/12/22 08:57:23;;;;;;;24.83;15.47;;;0.10;1.00;;;;;;5051676;28;20363;-76
2021/12/22 08:59:49;;;;;;;20.27;15.13;;;0.50;1.00;;;;;;5052999;28;20176;-75
2021/12/22 09:02:14;;;;;;;21.83;15.90;;;0.90;1.00;;;;;;5053729;28;20189;-75
2021/12/22 09:04:40;;;;;;;21.77;16.23;;;1.90;1.00;;;;;;5055269;28;20674;-76
2021/12/22 09:07:06;;;;;;;18.50;14.83;;;2.30;1.00;;;;;;5053988;28;20369;-75
2021/12/22 09:09:32;;;;;;;19.87;15.23;;;2.60;1.00;;;;;;5052001;28;20179;-76
2021/12/22 09:11:57;;;;;;;17.83;14.63;;;3.10;1.00;;;;;;5051612;28;20217;-76
2021/12/22 09:14:24;;;;;;;19.00;15.30;;;3.20;1.00;;;;;;5051730;28;20175;-76
2021/12/22 09:16:51;;;;;;;19.40;15.37;;;3.40;1.00;;;;;;5051776;28;20326;-76
2021/12/22 09:19:17;;;;;;;18.33;14.63;;;3.10;1.00;;;;;;5051801;28;20262;-76
2021/12/22 09:21:43;;;;;;;18.00;14.87;;;3.40;1.00;;;;;;5051689;28;20179;-76
2021/12/22 09:24:08;;;;;;;16.27;14.43;;;3.30;1.00;;;;;;5053278;28;20186;-76
2021/12/22 09:26:35;;;;;;;18.47;14.33;;;3.80;1.00;;;;;;5052032;28;20167;-76
2021/12/22 09:29:00;;;;;;;18.70;14.87;;;4.40;1.00;;;;;;5051910;28;20207;-76
2021/12/22 09:31:27;;;;;;;17.53;15.37;;;4.00;1.00;;;;;;5052042;28;20171;-76
2021/12/22 09:33:52;;;;;;;16.37;14.43;;;4.70;1.00;;;;;;5052088;28;20175;-77
2021/12/22 09:36:19;;;;;;;17.33;14.67;;;5.00;1.00;;;;;;5053050;28;20183;-76
2021/12/22 09:38:44;;;;;;;16.47;14.67;;;4.70;1.00;;;;;;5052086;28;20226;-76
2021/12/22 09:41:11;;;;;;;15.83;14.13;;;5.00;1.00;;;;;;5053001;28;20171;-76
2021/12/22 09:43:37;;;;;;;17.63;14.13;;;4.50;1.00;;;;;;5052630;28;20238;-76
2021/12/22 09:46:08;;;;;;;15.50;13.90;;;4.90;1.00;;;;;;5052936;28;20167;-76
2021/12/22 09:53:51;;;;;;;18.47;15.20;;;4.40;1.00;;;;;;5052284;28;20693;-76
2021/12/22 09:56:21;;;;;;;19.67;15.13;;;4.80;1.00;;;;;;5052191;28;20236;-77
2021/12/22 09:58:48;;;;;;;18.10;14.77;;;5.20;1.00;;;;;;5051190;28;20222;-77
2021/12/22 10:01:17;;;;;;;21.30;16.83;;;5.60;1.00;;;;;;5051605;28;20179;-77
2021/12/22 10:03:43;;;;;;;19.93;16.10;;;4.80;1.00;;;;;;5051220;28;20667;-76
2021/12/22 10:06:08;;;;;;;21.13;16.33;;;4.90;1.00;;;;;;5051573;28;20235;-76
2021/12/22 10:08:38;;;;;;;20.40;17.03;;;4.90;1.00;;;;;;5051363;28;20281;-79
2021/12/22 10:11:12;;;;;;;20.70;16.23;;;4.80;1.00;;;;;;5052683;28;20250;-76
2021/12/22 10:13:41;;;;;;;24.30;17.23;;;4.10;1.00;;;;;;5051614;28;20615;-75
2021/12/22 10:16:14;;;;;;;19.47;16.10;;;3.50;1.00;;;;;;5051781;28;20266;-76
2021/12/22 10:18:39;;;;;;;23.83;16.63;;;2.10;1.00;;;;;;5050912;28;20484;-76
2021/12/22 10:21:24;;;;;;;20.23;16.50;;;2.40;1.00;;;;;;5051495;28;20546;-76
2021/12/22 10:23:52;;;;;;;20.33;16.97;;;2.10;1.00;;;;;;5051568;28;20258;-76
2021/12/22 10:26:26;;;;;;;21.10;16.40;;;2.30;1.00;;;;;;5053500;28;20549;-76
2021/12/22 10:28:55;;;;;;;28.83;17.23;;;2.60;1.00;;;;;;5050564;28;20565;-76
2021/12/22 10:31:46;;;;;;;22.73;17.57;;;2.40;1.00;;;;;;5050923;28;20549;-76
2021/12/22 10:34:14;;;;;;;24.93;17.80;;;2.40;1.00;;;;;;5050322;28;20218;-75
2021/12/22 10:36:54;;;;;;;22.23;16.87;;;2.20;1.00;;;;;;5051203;28;20575;-75
2021/12/22 10:39:29;;;;;;;23.50;18.27;;;2.20;99.90;;;;;;5051017;28;20194;-76
2021/12/22 10:42:09;;;;;;;22.73;17.57;;;2.40;1.00;;;;;;5050834;28;20585;-75
2021/12/22 10:44:39;;;;;;;23.90;18.00;;;2.10;1.00;;;;;;5050745;28;20179;-75
2021/12/22 10:47:33;;;;;;;25.80;17.90;;;2.10;52.10;;;;;;5050318;28;20179;-75
2021/12/22 10:50:04;;;;;;;26.67;17.37;;;2.00;99.90;;;;;;5051203;28;20210;-75
2021/12/22 10:52:31;;;;;;;20.27;17.00;;;2.10;36.90;;;;;;5055150;28;20246;-75
2021/12/22 10:55:12;;;;;;;23.13;16.50;;;2.30;99.90;;;;;;5054574;28;20188;-76
2021/12/22 10:57:40;;;;;;;22.60;16.87;;;2.50;8.40;;;;;;5053891;28;20219;-76
2021/12/22 11:00:24;;;;;;;22.20;16.33;;;2.60;1.00;;;;;;5054186;28;20207;-75
2021/12/22 11:03:13;;;;;;;21.03;16.00;;;2.20;1.00;;;;;;5054631;28;20174;-76
2021/12/22 11:05:46;;;;;;;20.90;14.37;;;2.30;1.00;;;;;;5054540;28;20557;-75
2021/12/22 11:08:20;;;;;;;21.67;14.97;;;2.20;1.00;;;;;;5053596;28;20218;-75
2021/12/22 11:10:45;;;;;;;20.23;15.23;;;2.40;3.20;;;;;;5054129;28;20182;-76
2021/12/22 11:13:16;;;;;;;16.90;14.13;;;2.20;1.00;;;;;;5054137;28;20171;-75
2021/12/22 11:15:43;;;;;;;18.13;14.80;;;2.60;1.00;;;;;;5054187;28;20727;-76
2021/12/22 11:18:36;;;;;;;17.37;14.70;;;2.60;1.00;;;;;;5035957;28;20257;-74
2021/12/22 11:21:17;;;;;;;18.40;14.90;;;2.30;1.00;;;;;;5054283;28;20187;-75
2021/12/22 11:23:44;;;;;;;17.63;14.67;;;2.90;1.00;;;;;;5054232;28;20286;-77
2021/12/22 11:26:12;;;;;;;16.13;13.73;;;3.90;1.00;;;;;;5053875;28;20178;-76
2021/12/22 11:28:38;;;;;;;20.07;15.00;;;3.90;1.00;;;;;;5053441;28;20581;-75
2021/12/22 11:31:05;;;;;;;21.63;14.97;;;5.60;1.00;;;;;;5053799;28;20383;-75
2021/12/22 11:33:32;;;;;;;18.77;16.03;;;6.40;1.00;;;;;;5054177;28;20236;-75
2021/12/22 11:35:59;;;;;;;20.40;15.27;;;7.10;1.00;;;;;;5053951;28;20613;-75
2021/12/22 11:38:26;;;;;;;18.30;14.53;;;6.20;1.00;;;;;;5052807;28;20772;-74
2021/12/22 11:41:07;;;;;;;18.93;16.00;;;5.10;1.00;;;;;;5053780;28;20246;-76
2021/12/22 11:43:34;;;;;;;17.97;15.13;;;4.50;1.00;;;;;;5053883;28;20183;-76
2021/12/22 11:46:01;;;;;;;21.40;15.40;;;3.80;1.00;;;;;;5053581;28;20236;-77
2021/12/22 11:48:27;;;;;;;19.57;14.83;;;4.10;1.00;;;;;;5053291;28;20472;-76
2021/12/22 11:50:53;;;;;;;16.83;14.13;;;3.70;1.00;;;;;;5053603;28;20182;-75
2021/12/22 11:53:18;;;;;;;22.60;14.53;;;3.90;1.00;;;;;;5053290;28;20175;-76
2021/12/22 11:55:48;;;;;;;18.17;14.27;;;4.90;1.00;;;;;;5053512;28;20179;-74
2021/12/22 11:58:24;;;;;;;19.30;15.03;;;3.80;1.00;;;;;;5052972;28;20219;-75
2021/12/22 12:00:50;;;;;;;20.53;14.57;;;2.90;1.00;;;;;;5054269;28;20606;-76
2021/12/22 12:03:28;;;;;;;20.23;14.93;;;2.80;1.00;;;;;;5053163;28;20663;-76
2021/12/22 12:06:08;;;;;;;21.33;15.73;;;2.80;1.00;;;;;;5053363;28;20175;-75
2021/12/22 12:08:45;;;;;;;19.77;15.43;;;3.20;1.00;;;;;;5052618;28;20202;-75
2021/12/22 12:11:15;;;;;;;20.53;15.10;;;4.00;1.00;;;;;;5053411;28;20177;-76
2021/12/22 12:22:10;;;;;;;17.93;13.67;;;4.70;1.00;;;;;;5052830;28;20186;-75
2021/12/22 12:24:54;;;;;;;15.93;13.13;;;4.20;1.00;;;;;;5052725;28;20175;-75
2021/12/22 12:27:50;;;;;;;17.70;14.13;;;6.00;1.00;;;;;;5052506;28;20234;-75
2021/12/22 12:30:17;;;;;;;16.63;13.87;;;7.00;1.00;;;;;;5052949;28;20555;-74
2021/12/22 12:32:45;;;;;;;17.67;13.37;;;6.70;1.00;;;;;;5053120;28;20179;-75
2021/12/22 12:38:16;;;;;;;16.70;13.17;;;6.10;1.00;;;;;;5051984;28;20210;-75
2021/12/22 12:41:05;;;;;;;17.30;13.63;;;6.20;1.00;;;;;;5053003;28;20182;-75
2021/12/22 12:43:51;;;;;;;18.73;13.60;;;6.60;1.00;;;;;;5052955;28;20635;-76
2021/12/22 12:46:28;;;;;;;19.10;13.83;;;7.00;1.00;;;;;;5050951;28;20187;-75
2021/12/22 12:49:16;;;;;;;19.20;13.57;;;5.80;1.00;;;;;;5049138;28;20571;-75
2021/12/22 12:51:42;;;;;;;17.40;13.07;;;6.00;1.00;;;;;;5050182;28;20182;-74
2021/12/22 12:54:21;;;;;;;17.60;13.93;;;6.20;1.00;;;;;;5051972;28;20179;-74
2021/12/22 12:57:18;;;;;;;17.53;13.70;;;6.60;1.00;;;;;;5050564;28;20171;-75
2021/12/22 12:59:49;;;;;;;16.73;13.73;;;6.80;1.00;;;;;;5051984;28;20184;-74
2021/12/22 13:02:26;;;;;;;18.83;14.27;;;6.00;1.00;;;;;;5052069;28;20187;-75
2021/12/22 13:05:02;;;;;;;19.37;14.07;;;5.40;1.00;;;;;;5051747;28;20198;-74
2021/12/22 13:07:28;;;;;;;18.57;14.53;;;4.70;1.00;;;;;;5051340;28;20679;-74
2021/12/22 13:10:02;;;;;;;19.03;14.27;;;4.60;1.00;;;;;;5053099;28;20246;-75
2021/12/22 13:18:17;;;;;;;17.80;13.77;;;4.50;1.00;;;;;;5053361;28;20225;-75
2021/12/22 13:20:44;;;;;;;17.50;14.10;;;4.90;1.00;;;;;;5052470;28;20202;-74
2021/12/22 13:23:16;;;;;;;15.43;13.63;;;5.40;1.00;;;;;;5052139;28;20256;-75